createdAt,value
2018-10-07T00:02:16.606Z,11.96
2018-10-07T00:04:44.365Z,11.83
2018-10-07T00:07:12.147Z,11.81
2018-10-07T00:09:40.027Z,11.82
2018-10-07T00:12:07.793Z,11.76
2018-10-07T00:14:35.493Z,11.77
2018-10-07T00:17:03.252Z,11.55
2018-10-07T00:19:31.015Z,11.64
2018-10-07T00:21:58.672Z,11.65
2018-10-07T00:24:26.399Z,11.42
2018-10-07T00:26:54.261Z,11.65
2018-10-07T00:29:21.946Z,11.73
2018-10-07T00:31:55.237Z,11.67
2018-10-07T00:34:22.958Z,11.76
2018-10-07T00:36:50.682Z,11.71
2018-10-07T00:39:18.470Z,11.55
2018-10-07T00:41:46.389Z,11.72
2018-10-07T00:44:14.529Z,11.80
2018-10-07T00:46:43.027Z,11.76
2018-10-07T00:49:11.248Z,11.73
2018-10-07T00:51:39.499Z,12.02
2018-10-07T00:54:07.674Z,12.09
2018-10-07T00:56:36.050Z,12.00
2018-10-07T00:59:04.238Z,12.13
2018-10-07T01:01:32.050Z,11.93
2018-10-07T01:03:59.789Z,11.78
2018-10-07T01:06:27.548Z,11.76
2018-10-07T01:08:55.606Z,11.77
2018-10-07T01:11:24.078Z,11.72
2018-10-07T01:13:52.353Z,11.77
2018-10-07T01:16:20.849Z,11.78
2018-10-07T01:18:48.934Z,11.76
2018-10-07T01:21:17.286Z,11.88
2018-10-07T01:23:45.449Z,11.99
2018-10-07T01:26:13.914Z,11.90
2018-10-07T01:28:42.189Z,11.96
2018-10-07T01:31:10.303Z,12.03
2018-10-07T01:33:38.737Z,12.06
2018-10-07T01:36:07.229Z,12.02
2018-10-07T01:38:35.630Z,11.88
2018-10-07T01:41:03.957Z,11.79
2018-10-07T01:43:32.090Z,11.79
2018-10-07T01:46:00.365Z,11.68
2018-10-07T01:48:28.594Z,11.72
2018-10-07T01:50:56.730Z,11.53
2018-10-07T01:53:25.205Z,11.42
2018-10-07T01:55:53.397Z,11.55
2018-10-07T01:58:21.709Z,11.69
2018-10-07T02:00:50.014Z,11.63
2018-10-07T02:03:18.053Z,11.47
2018-10-07T02:05:46.101Z,11.39
2018-10-07T02:08:14.317Z,11.31
2018-10-07T02:10:42.502Z,11.27
2018-10-07T02:13:10.925Z,11.22
2018-10-07T02:15:38.878Z,11.34
2018-10-07T02:18:07.000Z,11.41
2018-10-07T02:20:35.175Z,11.29
2018-10-07T02:23:03.470Z,11.11
2018-10-07T02:25:31.946Z,11.09
2018-10-07T02:28:00.242Z,11.08
2018-10-07T02:30:28.855Z,10.83
2018-10-07T02:32:56.762Z,10.85
2018-10-07T02:35:25.030Z,10.75
2018-10-07T02:37:53.498Z,10.84
2018-10-07T02:40:21.989Z,10.66
2018-10-07T02:42:50.434Z,10.80
2018-10-07T02:45:18.726Z,10.95
2018-10-07T02:47:46.809Z,10.90
2018-10-07T02:50:20.044Z,10.74
2018-10-07T02:52:50.775Z,10.73
2018-10-07T02:55:22.662Z,10.74
2018-10-07T02:57:52.170Z,10.77
2018-10-07T03:00:20.208Z,10.75
2018-10-07T03:02:49.063Z,10.73
2018-10-07T03:05:17.138Z,10.81
2018-10-07T03:07:45.713Z,10.85
2018-10-07T03:10:14.197Z,10.89
2018-10-07T03:12:42.451Z,10.95
2018-10-07T03:15:10.952Z,10.92
2018-10-07T03:17:39.169Z,10.87
2018-10-07T03:20:07.400Z,10.82
2018-10-07T03:22:35.558Z,10.77
2018-10-07T03:25:03.647Z,10.69
2018-10-07T03:27:32.066Z,10.65
2018-10-07T03:30:00.331Z,10.57
2018-10-07T03:32:28.790Z,10.57
2018-10-07T03:34:57.042Z,10.58
2018-10-07T03:37:25.509Z,10.60
2018-10-07T03:39:53.737Z,10.62
2018-10-07T03:42:22.099Z,10.58
2018-10-07T03:44:50.341Z,10.49
2018-10-07T03:47:18.927Z,10.49
2018-10-07T03:49:47.106Z,10.51
2018-10-07T03:52:15.419Z,10.49
2018-10-07T03:54:43.729Z,10.52
2018-10-07T03:57:12.155Z,10.57
2018-10-07T03:59:40.435Z,10.49
2018-10-07T04:02:08.722Z,10.44
2018-10-07T04:04:37.191Z,10.49
2018-10-07T04:07:05.757Z,10.58
2018-10-07T04:09:33.953Z,10.69
2018-10-07T04:12:02.232Z,10.63
2018-10-07T04:14:30.499Z,10.55
2018-10-07T04:16:58.846Z,10.60
2018-10-07T04:19:27.018Z,10.60
2018-10-07T04:21:56.053Z,10.54
2018-10-07T04:24:25.522Z,10.51
2018-10-07T04:26:53.710Z,10.51
2018-10-07T04:29:22.198Z,10.57
2018-10-07T04:31:50.090Z,10.65
2018-10-07T04:34:18.378Z,10.76
2018-10-07T04:36:46.617Z,10.91
2018-10-07T04:39:14.807Z,10.98
2018-10-07T04:41:43.839Z,11.10
2018-10-07T04:44:12.025Z,11.22
2018-10-07T04:46:40.354Z,11.42
2018-10-07T04:49:08.392Z,11.47
2018-10-07T04:51:36.443Z,11.56
2018-10-07T04:54:04.785Z,11.60
2018-10-07T04:56:32.771Z,11.96
2018-10-07T04:59:00.472Z,13.53
2018-10-07T05:01:28.298Z,15.05
2018-10-07T05:03:56.312Z,16.10
2018-10-07T05:06:33.510Z,17.03
2018-10-07T05:09:04.175Z,17.18
2018-10-07T05:11:32.453Z,18.22
2018-10-07T05:14:00.562Z,18.99
2018-10-07T05:16:34.913Z,19.04
2018-10-07T05:19:03.098Z,19.35
2018-10-07T05:21:30.857Z,19.90
2018-10-07T05:23:59.045Z,20.58
2018-10-07T05:26:27.298Z,20.93
2018-10-07T05:28:55.224Z,21.49
2018-10-07T05:31:23.598Z,21.97
2018-10-07T05:33:51.863Z,22.24
2018-10-07T05:36:20.302Z,22.11
2018-10-07T05:38:48.542Z,21.49
2018-10-07T05:41:16.690Z,21.39
2018-10-07T05:43:44.906Z,20.98
2018-10-07T05:46:13.091Z,21.14
2018-10-07T05:48:41.293Z,20.83
2018-10-07T05:51:09.020Z,20.38
2018-10-07T05:53:36.723Z,20.42
2018-10-07T05:56:04.545Z,19.69
2018-10-07T05:58:32.976Z,19.72
2018-10-07T06:01:34.236Z,19.26
2018-10-07T06:04:13.013Z,18.82
2018-10-07T06:06:41.190Z,19.03
2018-10-07T06:09:15.932Z,18.73
2018-10-07T06:11:44.050Z,18.35
2018-10-07T06:14:23.499Z,18.00
2018-10-07T06:16:51.708Z,17.97
2018-10-07T06:19:19.478Z,17.90
2018-10-07T06:21:47.235Z,18.09
2018-10-07T06:24:15.030Z,17.98
2018-10-07T06:26:42.794Z,18.00
2018-10-07T06:29:10.510Z,18.39
2018-10-07T06:31:38.357Z,18.55
2018-10-07T06:34:06.139Z,18.65
2018-10-07T06:36:33.893Z,18.76
2018-10-07T06:39:01.656Z,18.43
2018-10-07T06:41:29.460Z,18.50
2018-10-07T06:43:57.290Z,18.41
2018-10-07T06:46:25.069Z,18.51
2018-10-07T06:48:52.799Z,19.16
2018-10-07T06:51:20.729Z,19.30
2018-10-07T06:53:48.489Z,19.18
2018-10-07T06:56:16.244Z,19.56
2018-10-07T06:58:43.979Z,19.60
2018-10-07T07:01:11.777Z,19.59
2018-10-07T07:03:39.516Z,19.71
2018-10-07T07:06:08.173Z,19.47
2018-10-07T07:08:36.010Z,19.78
2018-10-07T07:11:03.690Z,19.97
2018-10-07T07:13:31.482Z,20.16
2018-10-07T07:15:59.317Z,20.28
2018-10-07T07:18:27.085Z,20.21
2018-10-07T07:20:54.794Z,20.19
2018-10-07T07:23:22.538Z,20.40
2018-10-07T07:25:50.274Z,20.34
2018-10-07T07:28:18.101Z,20.44
2018-10-07T07:30:45.878Z,20.57
2018-10-07T07:33:13.545Z,20.23
2018-10-07T07:35:41.289Z,20.51
2018-10-07T07:38:09.093Z,21.12
2018-10-07T07:40:36.864Z,21.24
2018-10-07T07:43:04.601Z,21.44
2018-10-07T07:45:32.349Z,21.31
2018-10-07T07:48:00.093Z,21.41
2018-10-07T07:50:27.865Z,21.36
2018-10-07T07:52:55.720Z,21.58
2018-10-07T07:55:23.433Z,21.70
2018-10-07T07:57:51.168Z,21.89
2018-10-07T08:00:18.968Z,21.77
2018-10-07T08:02:46.714Z,22.06
2018-10-07T08:05:14.458Z,22.17
2018-10-07T08:07:42.314Z,22.42
2018-10-07T08:10:10.157Z,22.76
2018-10-07T08:12:37.989Z,22.72
2018-10-07T08:15:06.238Z,22.68
2018-10-07T08:17:34.211Z,22.78
2018-10-07T08:20:01.899Z,22.47
2018-10-07T08:22:29.631Z,22.78
2018-10-07T08:24:57.350Z,22.37
2018-10-07T08:27:25.224Z,22.73
2018-10-07T08:29:53.081Z,22.59
2018-10-07T08:32:20.884Z,22.77
2018-10-07T08:34:48.641Z,22.71
2018-10-07T08:37:16.491Z,22.72
2018-10-07T08:39:44.210Z,22.98
2018-10-07T08:42:11.993Z,23.42
2018-10-07T08:44:39.761Z,23.78
2018-10-07T08:47:07.535Z,24.27
2018-10-07T08:49:35.278Z,24.44
2018-10-07T08:52:03.065Z,23.92
2018-10-07T08:54:30.806Z,23.84
2018-10-07T08:56:58.602Z,23.87
2018-10-07T08:59:26.427Z,24.56
2018-10-07T09:01:54.261Z,25.12
2018-10-07T09:04:22.062Z,24.90
2018-10-07T09:06:49.794Z,24.63
2018-10-07T09:09:17.542Z,24.37
2018-10-07T09:11:45.250Z,24.65
2018-10-07T09:14:13.002Z,25.11
2018-10-07T09:16:40.739Z,25.83
2018-10-07T09:19:08.514Z,25.31
2018-10-07T09:21:36.363Z,25.87
2018-10-07T09:24:04.125Z,26.05
2018-10-07T09:26:31.887Z,25.46
2018-10-07T09:28:59.819Z,25.33
2018-10-07T09:31:27.703Z,25.36
2018-10-07T09:33:55.474Z,24.99
2018-10-07T09:36:23.339Z,24.98
2018-10-07T09:38:51.130Z,25.64
2018-10-07T09:41:19.111Z,26.04
2018-10-07T09:43:46.890Z,25.96
2018-10-07T09:46:14.882Z,25.32
2018-10-07T09:48:42.785Z,25.85
2018-10-07T09:51:10.566Z,25.38
2018-10-07T09:53:38.294Z,25.41
2018-10-07T09:56:06.015Z,25.78
2018-10-07T09:58:33.950Z,26.84
2018-10-07T10:01:01.702Z,27.35
2018-10-07T10:03:29.641Z,27.25
2018-10-07T10:05:57.879Z,26.95
2018-10-07T10:08:25.720Z,26.52
2018-10-07T10:10:53.529Z,26.29
2018-10-07T10:13:21.358Z,26.69
2018-10-07T10:15:49.146Z,26.54
2018-10-07T10:18:27.468Z,26.51
2018-10-07T10:21:03.706Z,25.74
2018-10-07T10:25:44.574Z,25.94
2018-10-07T10:28:24.921Z,26.57
2018-10-07T10:31:27.970Z,27.49
2018-10-07T10:35:38.705Z,27.98
2018-10-07T10:38:25.860Z,26.52
2018-10-07T10:41:00.471Z,26.17
2018-10-07T10:43:33.465Z,26.02
2018-10-07T10:46:10.022Z,25.84
2018-10-07T10:50:49.834Z,26.09
2018-10-07T10:53:25.209Z,25.95
2018-10-07T10:56:03.839Z,26.52
2018-10-07T10:58:38.074Z,27.04
2018-10-07T11:01:16.382Z,27.20
2018-10-07T11:03:53.801Z,27.51
2018-10-07T11:07:06.817Z,27.90
2018-10-07T11:09:46.090Z,27.67
2018-10-07T11:12:46.077Z,28.02
2018-10-07T11:15:24.767Z,27.22
2018-10-07T11:18:04.966Z,27.18
2018-10-07T11:22:51.513Z,27.12
2018-10-07T11:27:32.804Z,27.26
2018-10-07T11:30:13.495Z,28.00
2018-10-07T11:32:59.186Z,28.53
2018-10-07T11:35:47.020Z,28.32
2018-10-07T11:38:24.947Z,28.40
2018-10-07T11:43:13.378Z,28.36
2018-10-07T11:45:50.158Z,28.74
2018-10-07T11:48:27.097Z,28.28
2018-10-07T11:51:03.414Z,29.08
2018-10-07T11:54:08.115Z,27.08
2018-10-07T11:56:36.094Z,27.40
2018-10-07T11:59:03.938Z,26.96
2018-10-07T12:01:32.468Z,27.53
2018-10-07T12:04:00.570Z,28.01
2018-10-07T12:06:29.263Z,27.71
2018-10-07T12:08:58.118Z,27.15
2018-10-07T12:11:28.491Z,27.15
2018-10-07T12:13:58.356Z,27.17
2018-10-07T12:16:27.345Z,27.27
2018-10-07T12:18:58.006Z,27.60
2018-10-07T12:21:28.034Z,28.14
2018-10-07T12:23:58.405Z,27.61
2018-10-07T12:26:28.130Z,27.22
2018-10-07T12:28:58.733Z,27.67
2018-10-07T12:31:28.918Z,28.78
2018-10-07T12:33:58.738Z,28.49
2018-10-07T12:36:28.077Z,28.78
2018-10-07T12:38:56.879Z,27.95
2018-10-07T12:41:25.602Z,27.56
2018-10-07T12:43:54.607Z,27.66
2018-10-07T12:46:24.390Z,28.36
2018-10-07T12:48:53.510Z,27.63
2018-10-07T12:51:21.840Z,28.64
2018-10-07T12:53:51.187Z,28.16
2018-10-07T12:56:20.018Z,28.16
2018-10-07T12:58:49.066Z,28.15
2018-10-07T13:01:18.514Z,28.56
2018-10-07T13:03:47.707Z,28.54
2018-10-07T13:06:16.174Z,28.56
2018-10-07T13:08:44.051Z,28.66
2018-10-07T13:11:12.458Z,29.05
2018-10-07T13:13:40.920Z,28.49
2018-10-07T13:16:09.526Z,28.32
2018-10-07T13:18:39.327Z,28.03
2018-10-07T13:21:07.893Z,28.56
2018-10-07T13:23:36.002Z,28.33
2018-10-07T13:26:03.990Z,28.50
2018-10-07T13:28:31.739Z,28.03
2018-10-07T13:30:59.650Z,28.85
2018-10-07T13:33:28.546Z,29.29
2018-10-07T13:35:57.346Z,29.21
2018-10-07T13:38:25.695Z,29.11
2018-10-07T13:40:54.095Z,28.68
2018-10-07T13:43:22.661Z,27.97
2018-10-07T13:45:50.845Z,27.42
2018-10-07T13:48:20.356Z,27.48
2018-10-07T13:50:48.623Z,27.77
2018-10-07T13:53:17.326Z,28.11
2018-10-07T13:55:45.287Z,28.47
2018-10-07T13:58:13.046Z,28.67
2018-10-07T14:00:40.907Z,28.61
2018-10-07T14:03:08.868Z,28.60
2018-10-07T14:05:37.484Z,28.74
2018-10-07T14:08:05.447Z,28.90
2018-10-07T14:10:33.292Z,28.81
2018-10-07T14:13:01.066Z,28.89
2018-10-07T14:15:28.876Z,28.83
2018-10-07T14:17:56.751Z,28.71
2018-10-07T14:20:24.547Z,28.23
2018-10-07T14:22:52.410Z,27.75
2018-10-07T14:25:20.395Z,27.54
2018-10-07T14:27:48.608Z,27.39
2018-10-07T14:30:16.567Z,27.37
2018-10-07T14:32:44.496Z,27.45
2018-10-07T14:35:12.914Z,27.56
2018-10-07T14:37:41.279Z,27.37
2018-10-07T14:40:09.200Z,27.20
2018-10-07T14:42:37.207Z,27.21
2018-10-07T14:45:05.322Z,27.03
2018-10-07T14:47:33.875Z,26.78
2018-10-07T14:50:02.014Z,26.73
2018-10-07T14:52:30.474Z,26.49
2018-10-07T14:54:59.226Z,26.35
2018-10-07T14:57:28.012Z,25.73
2018-10-07T14:59:57.068Z,25.51
2018-10-07T15:02:26.474Z,25.49
2018-10-07T15:04:55.583Z,25.37
2018-10-07T15:07:24.452Z,24.84
2018-10-07T15:09:53.582Z,24.29
2018-10-07T15:12:21.762Z,23.49
2018-10-07T15:14:50.459Z,23.06
2018-10-07T15:17:19.521Z,22.76
2018-10-07T15:19:49.063Z,22.60
2018-10-07T15:22:19.182Z,22.53
2018-10-07T15:24:48.606Z,22.37
2018-10-07T15:27:16.713Z,22.20
2018-10-07T15:29:45.419Z,22.10
2018-10-07T15:32:14.002Z,21.92
2018-10-07T15:34:42.032Z,21.68
2018-10-07T15:37:10.202Z,21.60
2018-10-07T15:39:38.287Z,21.49
2018-10-07T15:42:06.355Z,21.29
2018-10-07T15:44:34.232Z,20.99
2018-10-07T15:47:02.342Z,20.69
2018-10-07T15:49:33.183Z,20.66
2018-10-07T15:52:03.092Z,20.55
2018-10-07T15:54:33.906Z,20.36
2018-10-07T15:57:02.252Z,20.26
2018-10-07T15:59:31.287Z,20.11
2018-10-07T16:02:00.040Z,19.90
2018-10-07T16:04:29.067Z,19.73
2018-10-07T16:06:58.688Z,19.53
2018-10-07T16:09:28.704Z,19.31
2018-10-07T16:11:57.801Z,19.12
2018-10-07T16:14:28.535Z,18.92
2018-10-07T16:16:58.219Z,18.85
2018-10-07T16:19:27.789Z,18.81
2018-10-07T16:21:56.927Z,19.03
2018-10-07T16:24:25.957Z,19.11
2018-10-07T16:26:54.201Z,19.01
2018-10-07T16:29:23.344Z,18.95
2018-10-07T16:31:52.737Z,19.00
2018-10-07T16:34:21.746Z,18.80
2018-10-07T16:36:52.194Z,18.83
2018-10-07T16:39:23.074Z,18.86
2018-10-07T16:41:51.700Z,18.85
2018-10-07T16:44:21.521Z,18.78
2018-10-07T16:46:50.987Z,18.67
2018-10-07T16:49:20.915Z,18.64
2018-10-07T16:51:51.180Z,18.59
2018-10-07T16:54:21.892Z,18.45
2018-10-07T16:56:52.204Z,18.42
2018-10-07T16:59:22.201Z,18.25
2018-10-07T17:01:52.583Z,18.28
2018-10-07T17:04:22.377Z,18.24
2018-10-07T17:06:52.033Z,18.23
2018-10-07T17:09:21.320Z,17.88
2018-10-07T17:11:50.076Z,17.73
2018-10-07T17:14:20.272Z,17.80
2018-10-07T17:16:50.649Z,17.85
2018-10-07T17:19:19.899Z,17.80
2018-10-07T17:21:49.960Z,17.66
2018-10-07T17:24:20.702Z,17.68
2018-10-07T17:26:51.136Z,17.64
2018-10-07T17:29:21.514Z,17.62
2018-10-07T17:31:51.491Z,17.55
2018-10-07T17:34:21.898Z,17.51
2018-10-07T17:36:52.458Z,17.36
2018-10-07T17:39:23.250Z,17.42
2018-10-07T17:41:53.377Z,17.38
2018-10-07T17:44:23.582Z,17.32
2018-10-07T17:46:52.940Z,17.26
2018-10-07T17:49:21.613Z,17.24
2018-10-07T17:51:50.419Z,17.19
2018-10-07T17:54:19.588Z,17.20
2018-10-07T17:56:49.057Z,17.11
2018-10-07T17:59:18.792Z,17.10
2018-10-07T18:01:48.686Z,16.92
2018-10-07T18:04:18.619Z,16.94
2018-10-07T18:06:48.603Z,16.91
2018-10-07T18:09:18.474Z,16.89
2018-10-07T18:11:48.087Z,16.90
2018-10-07T18:14:17.493Z,16.77
2018-10-07T18:16:47.207Z,16.73
2018-10-07T18:19:17.694Z,16.71
2018-10-07T18:21:48.298Z,16.74
2018-10-07T18:24:18.167Z,16.75
2018-10-07T18:26:48.433Z,16.72
2018-10-07T18:29:18.559Z,16.72
2018-10-07T18:31:47.749Z,16.77
2018-10-07T18:34:17.702Z,16.80
2018-10-07T18:36:46.705Z,16.77
2018-10-07T18:39:15.740Z,16.80
2018-10-07T18:41:45.103Z,16.80
2018-10-07T18:44:15.242Z,16.84
2018-10-07T18:46:45.800Z,16.88
2018-10-07T18:49:16.096Z,16.90
2018-10-07T18:51:46.868Z,16.85
2018-10-07T18:54:17.300Z,16.78
2018-10-07T18:56:47.804Z,16.79
2018-10-07T18:59:17.755Z,16.77
2018-10-07T19:01:48.386Z,16.76
2018-10-07T19:04:19.097Z,16.78
2018-10-07T19:06:49.791Z,16.73
2018-10-07T19:09:19.967Z,16.73
2018-10-07T19:11:50.306Z,16.59
2018-10-07T19:14:20.741Z,16.47
2018-10-07T19:16:51.430Z,16.43
2018-10-07T19:19:21.827Z,16.37
2018-10-07T19:21:51.972Z,16.46
2018-10-07T19:24:22.134Z,16.45
2018-10-07T19:26:52.659Z,16.46
2018-10-07T19:29:26.076Z,16.47
2018-10-07T19:31:55.830Z,16.47
2018-10-07T19:34:25.143Z,16.39
2018-10-07T19:36:54.785Z,16.34
2018-10-07T19:39:24.289Z,16.32
2018-10-07T19:41:53.807Z,15.95
2018-10-07T19:44:22.960Z,16.00
2018-10-07T19:46:52.571Z,16.06
2018-10-07T19:49:21.391Z,15.99
2018-10-07T19:51:51.071Z,16.03
2018-10-07T19:54:21.058Z,16.08
2018-10-07T19:56:49.954Z,16.13
2018-10-07T19:59:19.044Z,15.85
2018-10-07T20:01:47.341Z,15.92
2018-10-07T20:04:15.884Z,15.88
2018-10-07T20:06:44.771Z,15.70
2018-10-07T20:09:13.291Z,15.67
2018-10-07T20:11:42.201Z,15.78
2018-10-07T20:14:10.348Z,15.83
2018-10-07T20:16:38.485Z,15.55
2018-10-07T20:19:06.321Z,15.62
2018-10-07T20:21:34.219Z,15.60
2018-10-07T20:24:02.082Z,15.63
2018-10-07T20:26:29.911Z,15.69
2018-10-07T20:28:57.669Z,15.70
2018-10-07T20:31:25.475Z,15.86
2018-10-07T20:33:53.408Z,15.72
2018-10-07T20:36:21.090Z,15.65
2018-10-07T20:38:48.888Z,15.65
2018-10-07T20:41:16.603Z,15.42
2018-10-07T20:43:44.375Z,15.81
2018-10-07T20:46:12.111Z,15.81
2018-10-07T20:48:39.809Z,15.75
2018-10-07T20:51:07.537Z,15.84
2018-10-07T20:53:35.306Z,15.82
2018-10-07T20:56:03.263Z,15.76
2018-10-07T20:58:30.975Z,15.63
2018-10-07T21:00:58.789Z,15.60
2018-10-07T21:03:26.465Z,15.72
2018-10-07T21:05:54.201Z,15.69
2018-10-07T21:08:22.006Z,15.81
2018-10-07T21:10:49.706Z,15.61
2018-10-07T21:13:17.475Z,15.65
2018-10-07T21:15:45.307Z,15.56
2018-10-07T21:18:13.107Z,15.56
2018-10-07T21:20:40.900Z,15.69
2018-10-07T21:23:08.730Z,15.59
2018-10-07T21:25:36.491Z,15.59
2018-10-07T21:28:04.238Z,15.46
2018-10-07T21:30:32.017Z,15.38
2018-10-07T21:32:59.750Z,15.28
2018-10-07T21:35:27.445Z,15.35
2018-10-07T21:37:55.174Z,15.43
2018-10-07T21:40:22.909Z,15.50
2018-10-07T21:42:50.654Z,15.41
2018-10-07T21:45:18.463Z,15.46
2018-10-07T21:47:46.190Z,15.44
2018-10-07T21:50:13.894Z,15.36
2018-10-07T21:52:41.630Z,15.38
2018-10-07T21:55:09.334Z,15.46
2018-10-07T21:57:37.119Z,15.36
2018-10-07T22:00:06.418Z,15.32
2018-10-07T22:02:34.151Z,15.35
2018-10-07T22:05:01.887Z,15.36
2018-10-07T22:07:29.648Z,15.35
2018-10-07T22:09:57.458Z,15.27
2018-10-07T22:12:25.152Z,15.18
2018-10-07T22:14:52.881Z,15.12
2018-10-07T22:17:20.659Z,15.00
2018-10-07T22:19:48.404Z,14.94
2018-10-07T22:22:16.209Z,14.93
2018-10-07T22:24:43.917Z,14.88
2018-10-07T22:27:11.682Z,14.80
2018-10-07T22:29:39.471Z,14.71
2018-10-07T22:32:07.230Z,14.69
2018-10-07T22:34:34.958Z,14.64
2018-10-07T22:37:02.665Z,14.52
2018-10-07T22:39:30.410Z,14.36
2018-10-07T22:41:58.122Z,14.36
2018-10-07T22:44:25.898Z,14.37
2018-10-07T22:46:53.598Z,14.29
2018-10-07T22:49:21.589Z,14.33
2018-10-07T22:51:49.364Z,14.32
2018-10-07T22:54:17.016Z,14.18
2018-10-07T22:56:44.775Z,14.05
2018-10-07T22:59:12.567Z,14.02
2018-10-07T23:01:40.275Z,14.07
2018-10-07T23:04:07.977Z,13.92
2018-10-07T23:06:35.752Z,13.85
2018-10-07T23:09:05.287Z,13.82
2018-10-07T23:11:32.998Z,13.81
2018-10-07T23:14:00.721Z,13.77
2018-10-07T23:16:28.420Z,13.83
2018-10-07T23:18:56.146Z,13.85
2018-10-07T23:21:23.917Z,13.82
2018-10-07T23:23:51.666Z,13.60
2018-10-07T23:26:19.535Z,13.53
2018-10-07T23:28:47.389Z,13.53
2018-10-07T23:31:15.186Z,13.55
2018-10-07T23:33:42.952Z,13.53
2018-10-07T23:36:10.732Z,13.44
2018-10-07T23:38:38.467Z,13.43
2018-10-07T23:41:06.357Z,13.31
2018-10-07T23:43:34.170Z,13.15
2018-10-07T23:46:01.857Z,13.24
2018-10-07T23:48:29.566Z,13.33
2018-10-07T23:50:57.311Z,13.41
2018-10-07T23:53:25.000Z,13.42
2018-10-07T23:55:52.726Z,13.33
2018-10-07T23:58:20.486Z,13.23
